Low temp

Not for real navigation. The accuracy of this data is not assured See disclaimer for more information



ICAO NAME COUNTRY WIND Kt GUST Kt VIS m TEMP/DEW C BARO METAR
NZSP Amundsen-Scott South Pole Stat Antarctica 7 0 3200 -50/0 28.50 NZSP 252350Z 05007KT 3200 IC BR BKN010 M50/ A2850 RMK CLN AIR 05007KT ALL WNDS GRID
KBQX Brazos 451 TX United States 0 0 9999 -40/0 30.00 KBQX 252355Z AUTO 00000KT 10SM CAVOK M40/ A3000 RMK A01
CYIO Pond Inlet, N. W. T. Canada 4 0 9999 -26/-29 29.91 CYIO 252300Z AUTO 19004KT 9SM CAVOK M26/M29 A2991 RMK SLP139
CWRF Pelly Bay 1 Canada 11 0 9999 -22/0 29.75 CWRF 252300Z AUTO 01011KT M22/ A2975 RMK SLP125
CXAT 1 0 9999 -22/-26 29.92 CXAT 252300Z AUTO 33001KT M22/M26 RMK AO1 SOG 06 1000 SLP140 T12171262

Show more